sensor_id;sensor_type;location;lat;lon;timestamp;pressure;altitude;pressure_sealevel;temperature;humidity
39449;BME280;25151;45.566;9.382;2022-08-21T00:02:50;99365.75;;;27.33;52.39
39449;BME280;25151;45.566;9.382;2022-08-21T00:05:51;99363.41;;;27.32;52.53
39449;BME280;25151;45.566;9.382;2022-08-21T00:08:52;99367.03;;;27.32;52.69
39449;BME280;25151;45.566;9.382;2022-08-21T00:11:52;99361.38;;;27.32;52.40
39449;BME280;25151;45.566;9.382;2022-08-21T00:14:53;99362.63;;;27.31;52.17
39449;BME280;25151;45.566;9.382;2022-08-21T00:17:54;99352.34;;;27.28;52.43
39449;BME280;25151;45.566;9.382;2022-08-21T00:20:55;99349.00;;;27.30;52.48
39449;BME280;25151;45.566;9.382;2022-08-21T00:23:56;99353.66;;;27.33;52.69
39449;BME280;25151;45.566;9.382;2022-08-21T00:26:56;99351.31;;;27.31;52.63
39449;BME280;25151;45.566;9.382;2022-08-21T00:29:57;99359.53;;;27.29;52.44
39449;BME280;25151;45.566;9.382;2022-08-21T00:32:58;99364.19;;;27.32;52.58
39449;BME280;25151;45.566;9.382;2022-08-21T00:36:00;99359.03;;;27.31;52.37
39449;BME280;25151;45.566;9.382;2022-08-21T00:39:01;99359.81;;;27.31;52.39
39449;BME280;25151;45.566;9.382;2022-08-21T00:42:02;99356.97;;;27.31;52.34
39449;BME280;25151;45.566;9.382;2022-08-21T00:45:04;99359.81;;;27.31;52.21
39449;BME280;25151;45.566;9.382;2022-08-21T00:48:06;99362.09;;;27.27;52.15
39449;BME280;25151;45.566;9.382;2022-08-21T00:51:17;99359.25;;;27.27;52.41
39449;BME280;25151;45.566;9.382;2022-08-21T00:54:26;99355.66;;;27.27;52.47
39449;BME280;25151;45.566;9.382;2022-08-21T00:57:39;99359.53;;;27.29;52.42
39449;BME280;25151;45.566;9.382;2022-08-21T01:00:43;99356.72;;;27.29;52.59
39449;BME280;25151;45.566;9.382;2022-08-21T01:03:46;99359.53;;;27.29;52.46
39449;BME280;25151;45.566;9.382;2022-08-21T01:06:47;99363.91;;;27.30;52.55
39449;BME280;25151;45.566;9.382;2022-08-21T01:09:48;99361.09;;;27.30;52.44
39449;BME280;25151;45.566;9.382;2022-08-21T01:12:51;99359.53;;;27.29;52.54
39449;BME280;25151;45.566;9.382;2022-08-21T01:15:54;99350.25;;;27.23;52.66
39449;BME280;25151;45.566;9.382;2022-08-21T01:18:55;99361.09;;;27.30;52.28
39449;BME280;25151;45.566;9.382;2022-08-21T01:21:56;99360.84;;;27.28;52.72
39449;BME280;25151;45.566;9.382;2022-08-21T01:24:57;99363.91;;;27.30;52.42
39449;BME280;25151;45.566;9.382;2022-08-21T01:28:00;99369.31;;;27.28;52.64
39449;BME280;25151;45.566;9.382;2022-08-21T01:31:02;99362.38;;;27.29;52.63
39449;BME280;25151;45.566;9.382;2022-08-21T01:34:05;99359.53;;;27.29;52.36
39449;BME280;25151;45.566;9.382;2022-08-21T01:37:06;99360.31;;;27.30;52.42
39449;BME280;25151;45.566;9.382;2022-08-21T01:40:07;99359.53;;;27.29;52.42
39449;BME280;25151;45.566;9.382;2022-08-21T01:43:08;99356.44;;;27.27;52.49
39449;BME280;25151;45.566;9.382;2022-08-21T01:46:10;99355.19;;;27.28;52.73
39449;BME280;25151;45.566;9.382;2022-08-21T01:49:10;99347.94;;;27.27;52.42
39449;BME280;25151;45.566;9.382;2022-08-21T01:52:11;99349.50;;;27.28;52.54
39449;BME280;25151;45.566;9.382;2022-08-21T01:55:14;99340.75;;;27.26;52.47
39449;BME280;25151;45.566;9.382;2022-08-21T01:58:15;99349.50;;;27.28;52.39
39449;BME280;25151;45.566;9.382;2022-08-21T02:01:17;99343.56;;;27.26;52.48
39449;BME280;25151;45.566;9.382;2022-08-21T02:04:18;99347.94;;;27.27;52.67
39449;BME280;25151;45.566;9.382;2022-08-21T02:07:18;99334.25;;;27.20;52.23
39449;BME280;25151;45.566;9.382;2022-08-21T02:10:22;99334.81;;;27.24;52.36
39449;BME280;25151;45.566;9.382;2022-08-21T02:13:23;99337.91;;;27.26;52.48
39449;BME280;25151;45.566;9.382;2022-08-21T02:16:24;99329.13;;;27.24;52.38
39449;BME280;25151;45.566;9.382;2022-08-21T02:19:25;99333.53;;;27.25;52.80
39449;BME280;25151;45.566;9.382;2022-08-21T02:22:26;99323.75;;;27.26;52.38
39449;BME280;25151;45.566;9.382;2022-08-21T02:25:27;99327.09;;;27.25;52.34
39449;BME280;25151;45.566;9.382;2022-08-21T02:28:28;99330.72;;;27.25;52.47
39449;BME280;25151;45.566;9.382;2022-08-21T02:31:28;99322.22;;;27.25;52.34
39449;BME280;25151;45.566;9.382;2022-08-21T02:34:29;99318.72;;;26.98;50.64
39449;BME280;25151;45.566;9.382;2022-08-21T02:37:30;99327.59;;;26.80;48.61
39449;BME280;25151;45.566;9.382;2022-08-21T02:40:34;99322.44;;;26.79;47.62
39449;BME280;25151;45.566;9.382;2022-08-21T02:43:35;99322.91;;;26.71;46.33
39449;BME280;25151;45.566;9.382;2022-08-21T02:46:36;99322.59;;;26.64;45.73
39449;BME280;25151;45.566;9.382;2022-08-21T02:49:36;99330.06;;;26.61;44.93
39449;BME280;25151;45.566;9.382;2022-08-21T02:52:37;99329.50;;;26.57;44.03
39449;BME280;25151;45.566;9.382;2022-08-21T02:55:38;99321.50;;;26.56;43.16
39449;BME280;25151;45.566;9.382;2022-08-21T02:58:41;99316.84;;;26.53;42.56
39449;BME280;25151;45.566;9.382;2022-08-21T03:01:43;99316.31;;;26.48;42.32
39449;BME280;25151;45.566;9.382;2022-08-21T03:04:44;99318.88;;;26.46;41.88
39449;BME280;25151;45.566;9.382;2022-08-21T03:07:46;99313.78;;;26.51;41.74
39449;BME280;25151;45.566;9.382;2022-08-21T03:10:49;99326.84;;;26.48;41.28
39449;BME280;25151;45.566;9.382;2022-08-21T03:13:50;99325.19;;;26.36;41.29
39449;BME280;25151;45.566;9.382;2022-08-21T03:16:51;99318.56;;;26.44;41.09
39449;BME280;25151;45.566;9.382;2022-08-21T03:19:52;99323.97;;;26.42;41.30
39449;BME280;25151;45.566;9.382;2022-08-21T03:22:53;99330.50;;;26.54;41.40
39449;BME280;25151;45.566;9.382;2022-08-21T03:25:57;99321.72;;;26.46;41.46
39449;BME280;25151;45.566;9.382;2022-08-21T03:28:59;99327.63;;;26.48;41.57
39449;BME280;25151;45.566;9.382;2022-08-21T03:32:00;99325.50;;;26.43;42.01
39449;BME280;25151;45.566;9.382;2022-08-21T03:35:00;99322.88;;;26.34;41.77
39449;BME280;25151;45.566;9.382;2022-08-21T03:38:01;99321.59;;;26.35;41.88
39449;BME280;25151;45.566;9.382;2022-08-21T03:41:03;99328.00;;;26.36;42.31
39449;BME280;25151;45.566;9.382;2022-08-21T03:44:04;99332.63;;;26.33;42.00
39449;BME280;25151;45.566;9.382;2022-08-21T03:47:04;99324.38;;;26.30;42.42
39449;BME280;25151;45.566;9.382;2022-08-21T03:50:05;99314.06;;;26.27;42.53
39449;BME280;25151;45.566;9.382;2022-08-21T03:53:10;99298.75;;;26.07;42.54
39449;BME280;25151;45.566;9.382;2022-08-21T03:56:11;99318.13;;;26.20;42.94
39449;BME280;25151;45.566;9.382;2022-08-21T03:59:12;99326.38;;;26.23;42.83
39449;BME280;25151;45.566;9.382;2022-08-21T04:02:21;99318.56;;;26.13;43.10
39449;BME280;25151;45.566;9.382;2022-08-21T04:05:22;99316.97;;;26.06;43.02
39449;BME280;25151;45.566;9.382;2022-08-21T04:08:29;99311.81;;;26.05;43.15
39449;BME280;25151;45.566;9.382;2022-08-21T04:11:30;99328.31;;;26.12;43.19
39449;BME280;25151;45.566;9.382;2022-08-21T04:14:31;99319.28;;;26.08;43.13
39449;BME280;25151;45.566;9.382;2022-08-21T04:17:32;99320.03;;;26.03;43.31
39449;BME280;25151;45.566;9.382;2022-08-21T04:20:34;99319.47;;;25.98;43.39
39449;BME280;25151;45.566;9.382;2022-08-21T04:23:35;99321.69;;;25.89;43.76
39449;BME280;25151;45.566;9.382;2022-08-21T04:26:36;99321.63;;;25.83;43.94
39449;BME280;25151;45.566;9.382;2022-08-21T04:29:37;99315.69;;;25.81;43.86
39449;BME280;25151;45.566;9.382;2022-08-21T04:32:42;99320.22;;;25.73;44.38
39449;BME280;25151;45.566;9.382;2022-08-21T04:35:44;99326.16;;;25.75;44.07
39449;BME280;25151;45.566;9.382;2022-08-21T04:38:44;99322.81;;;25.76;44.00
39449;BME280;25151;45.566;9.382;2022-08-21T04:41:45;99327.22;;;25.78;44.14
39449;BME280;25151;45.566;9.382;2022-08-21T04:44:47;99329.34;;;25.83;43.95
39449;BME280;25151;45.566;9.382;2022-08-21T04:47:50;99329.56;;;25.79;44.05
39449;BME280;25151;45.566;9.382;2022-08-21T04:54:05;99338.81;;;25.80;44.53
39449;BME280;25151;45.566;9.382;2022-08-21T04:57:08;99333.44;;;25.82;44.40
39449;BME280;25151;45.566;9.382;2022-08-21T05:00:12;99341.66;;;25.85;44.41
39449;BME280;25151;45.566;9.382;2022-08-21T05:03:14;99349.31;;;25.79;44.40
39449;BME280;25151;45.566;9.382;2022-08-21T05:06:17;99352.41;;;25.81;44.30
39449;BME280;25151;45.566;9.382;2022-08-21T05:09:20;99344.75;;;25.82;44.10
39449;BME280;25151;45.566;9.382;2022-08-21T05:12:22;99342.53;;;25.71;43.92
39449;BME280;25151;45.566;9.382;2022-08-21T05:28:27;99351.72;;;25.66;43.87
39449;BME280;25151;45.566;9.382;2022-08-21T05:31:31;99360.28;;;25.77;43.41
39449;BME280;25151;45.566;9.382;2022-08-21T05:34:32;99353.63;;;25.74;43.30
39449;BME280;25151;45.566;9.382;2022-08-21T05:37:32;99371.75;;;25.68;43.34
39449;BME280;25151;45.566;9.382;2022-08-21T05:40:33;99369.78;;;25.74;43.35
39449;BME280;25151;45.566;9.382;2022-08-21T05:43:34;99378.34;;;25.80;43.40
39449;BME280;25151;45.566;9.382;2022-08-21T05:46:36;99372.69;;;25.80;43.54
39449;BME280;25151;45.566;9.382;2022-08-21T05:49:37;99377.25;;;25.77;43.61
39449;BME280;25151;45.566;9.382;2022-08-21T05:52:38;99368.31;;;25.79;43.35
39449;BME280;25151;45.566;9.382;2022-08-21T05:55:39;99380.78;;;25.72;43.42
39449;BME280;25151;45.566;9.382;2022-08-21T05:58:40;99378.47;;;25.70;43.36
39449;BME280;25151;45.566;9.382;2022-08-21T06:01:40;99382.53;;;25.69;43.53
39449;BME280;25151;45.566;9.382;2022-08-21T06:04:41;99378.25;;;25.74;43.52
39449;BME280;25151;45.566;9.382;2022-08-21T06:07:41;99392.25;;;25.83;43.64
39449;BME280;25151;45.566;9.382;2022-08-21T06:10:43;99382.63;;;25.75;43.79
39449;BME280;25151;45.566;9.382;2022-08-21T06:13:44;99380.00;;;25.71;43.71
39449;BME280;25151;45.566;9.382;2022-08-21T06:16:44;99377.69;;;25.70;43.58
39449;BME280;25151;45.566;9.382;2022-08-21T06:19:53;99370.03;;;25.76;43.67
39449;BME280;25151;45.566;9.382;2022-08-21T06:22:54;99380.56;;;25.96;43.30
39449;BME280;25151;45.566;9.382;2022-08-21T06:25:54;99374.19;;;26.01;43.81
39449;BME280;25151;45.566;9.382;2022-08-21T06:28:55;99375.53;;;26.06;43.33
39449;BME280;25151;45.566;9.382;2022-08-21T06:31:56;99376.09;;;26.10;43.47
39449;BME280;25151;45.566;9.382;2022-08-21T06:34:56;99377.13;;;26.12;43.84
39449;BME280;25151;45.566;9.382;2022-08-21T06:37:57;99361.25;;;26.15;43.68
39449;BME280;25151;45.566;9.382;2022-08-21T06:40:58;99355.59;;;26.15;43.50
39449;BME280;25151;45.566;9.382;2022-08-21T06:43:59;99363.56;;;26.16;44.08
39449;BME280;25151;45.566;9.382;2022-08-21T06:46:59;99365.69;;;26.21;44.04
39449;BME280;25151;45.566;9.382;2022-08-21T06:50:00;99362.34;;;26.23;44.34
39449;BME280;25151;45.566;9.382;2022-08-21T06:53:07;99364.66;;;26.24;44.05
39449;BME280;25151;45.566;9.382;2022-08-21T06:56:08;99360.06;;;26.27;44.46
39449;BME280;25151;45.566;9.382;2022-08-21T06:59:08;99367.25;;;26.28;44.44
39449;BME280;25151;45.566;9.382;2022-08-21T07:02:10;99355.47;;;26.30;44.72
39449;BME280;25151;45.566;9.382;2022-08-21T07:05:11;99363.44;;;26.31;44.85
39449;BME280;25151;45.566;9.382;2022-08-21T07:08:12;99357.78;;;26.31;44.75
39449;BME280;25151;45.566;9.382;2022-08-21T07:11:19;99362.44;;;26.34;44.83
39449;BME280;25151;45.566;9.382;2022-08-21T07:14:20;99358.84;;;26.34;44.87
39449;BME280;25151;45.566;9.382;2022-08-21T07:17:21;99352.97;;;26.37;45.20
39449;BME280;25151;45.566;9.382;2022-08-21T07:20:21;99351.69;;;26.38;45.02
39449;BME280;25151;45.566;9.382;2022-08-21T07:23:26;99358.38;;;26.41;45.11
39449;BME280;25151;45.566;9.382;2022-08-21T07:26:27;99355.84;;;26.43;45.26
39449;BME280;25151;45.566;9.382;2022-08-21T07:29:28;99353.28;;;26.45;45.40
39449;BME280;25151;45.566;9.382;2022-08-21T07:32:28;99353.28;;;26.45;45.40
39449;BME280;25151;45.566;9.382;2022-08-21T07:35:29;99359.25;;;26.47;45.51
39449;BME280;25151;45.566;9.382;2022-08-21T07:38:31;99353.34;;;26.51;45.32
39449;BME280;25151;45.566;9.382;2022-08-21T07:41:33;99358.25;;;26.50;45.66
39449;BME280;25151;45.566;9.382;2022-08-21T07:44:34;99353.34;;;26.51;45.55
39449;BME280;25151;45.566;9.382;2022-08-21T07:47:35;99350.00;;;26.52;45.79
39449;BME280;25151;45.566;9.382;2022-08-21T07:50:36;99350.78;;;26.53;45.97
39449;BME280;25151;45.566;9.382;2022-08-21T07:53:37;99353.13;;;26.54;45.99
39449;BME280;25151;45.566;9.382;2022-08-21T07:56:38;99358.56;;;26.58;45.96
39449;BME280;25151;45.566;9.382;2022-08-21T07:59:39;99354.16;;;26.57;46.16
39449;BME280;25151;45.566;9.382;2022-08-21T08:02:40;99353.69;;;26.58;46.32
39449;BME280;25151;45.566;9.382;2022-08-21T08:05:40;99350.34;;;26.60;46.53
39449;BME280;25151;45.566;9.382;2022-08-21T08:08:42;99354.44;;;26.59;46.30
39449;BME280;25151;45.566;9.382;2022-08-21T08:11:42;99347.25;;;26.58;46.54
39449;BME280;25151;45.566;9.382;2022-08-21T08:14:44;99350.34;;;26.60;46.56
39449;BME280;25151;45.566;9.382;2022-08-21T08:17:44;99339.03;;;26.60;46.47
39449;BME280;25151;45.566;9.382;2022-08-21T08:20:45;99345.44;;;26.60;46.67
39449;BME280;25151;45.566;9.382;2022-08-21T08:23:45;99340.84;;;26.63;46.64
39449;BME280;25151;45.566;9.382;2022-08-21T08:26:47;99338.03;;;26.63;46.43
39449;BME280;25151;45.566;9.382;2022-08-21T08:29:48;99326.44;;;26.61;46.84
39449;BME280;25151;45.566;9.382;2022-08-21T08:32:49;99334.69;;;26.64;46.72
39449;BME280;25151;45.566;9.382;2022-08-21T08:35:51;99319.50;;;26.62;46.74
39449;BME280;25151;45.566;9.382;2022-08-21T08:38:51;99327.47;;;26.63;46.68
39449;BME280;25151;45.566;9.382;2022-08-21T08:42:24;99319.06;;;26.69;46.74
39449;BME280;25151;45.566;9.382;2022-08-21T08:45:26;99316.94;;;26.64;46.74
39449;BME280;25151;45.566;9.382;2022-08-21T08:48:44;99311.06;;;26.67;46.80
39449;BME280;25151;45.566;9.382;2022-08-21T08:55:37;99311.59;;;26.71;47.09
39449;BME280;25151;45.566;9.382;2022-08-21T08:58:41;99313.13;;;26.72;46.97
39449;BME280;25151;45.566;9.382;2022-08-21T09:01:42;99314.44;;;26.71;47.08
39449;BME280;25151;45.566;9.382;2022-08-21T09:04:46;99309.81;;;26.74;47.28
39449;BME280;25151;45.566;9.382;2022-08-21T09:08:20;99309.31;;;26.76;47.02
39449;BME280;25151;45.566;9.382;2022-08-21T09:11:48;99300.81;;;26.76;47.04
39449;BME280;25151;45.566;9.382;2022-08-21T09:18:44;99304.69;;;26.78;47.14
39449;BME280;25151;45.566;9.382;2022-08-21T09:21:49;99311.13;;;26.79;46.80
39449;BME280;25151;45.566;9.382;2022-08-21T09:25:01;99306.25;;;26.79;47.01
39449;BME280;25151;45.566;9.382;2022-08-21T09:28:03;99310.38;;;26.78;46.92
39449;BME280;25151;45.566;9.382;2022-08-21T09:34:27;99310.13;;;26.82;47.05
39449;BME280;25151;45.566;9.382;2022-08-21T09:37:29;99306.78;;;26.83;47.17
39449;BME280;25151;45.566;9.382;2022-08-21T09:40:38;99306.78;;;26.83;47.16
39449;BME280;25151;45.566;9.382;2022-08-21T09:43:39;99306.53;;;26.81;46.74
39449;BME280;25151;45.566;9.382;2022-08-21T09:46:50;99309.13;;;26.85;46.83
39449;BME280;25151;45.566;9.382;2022-08-21T09:49:51;99308.59;;;26.86;46.90
39449;BME280;25151;45.566;9.382;2022-08-21T09:52:58;99300.13;;;26.86;47.10
39449;BME280;25151;45.566;9.382;2022-08-21T09:56:03;99299.13;;;26.89;46.96
39449;BME280;25151;45.566;9.382;2022-08-21T09:59:27;99299.13;;;26.89;47.00
39449;BME280;25151;45.566;9.382;2022-08-21T10:02:33;99293.19;;;26.87;47.04
39449;BME280;25151;45.566;9.382;2022-08-21T10:05:34;99309.41;;;26.92;46.99
39449;BME280;25151;45.566;9.382;2022-08-21T10:08:37;99305.31;;;26.93;47.22
39449;BME280;25151;45.566;9.382;2022-08-21T10:11:39;99297.81;;;26.90;47.61
39449;BME280;25151;45.566;9.382;2022-08-21T10:14:55;99299.66;;;26.93;47.33
39449;BME280;25151;45.566;9.382;2022-08-21T10:18:09;99301.94;;;26.89;47.84
39449;BME280;25151;45.566;9.382;2022-08-21T10:24:29;99291.41;;;26.95;47.82
39449;BME280;25151;45.566;9.382;2022-08-21T10:30:50;99288.88;;;26.97;48.17
39449;BME280;25151;45.566;9.382;2022-08-21T10:34:19;99275.72;;;26.89;48.22
39449;BME280;25151;45.566;9.382;2022-08-21T10:37:48;99284.50;;;27.02;48.59
39449;BME280;25151;45.566;9.382;2022-08-21T10:41:00;99274.19;;;26.99;48.63
39449;BME280;25151;45.566;9.382;2022-08-21T10:47:53;99273.19;;;27.02;48.93
39449;BME280;25151;45.566;9.382;2022-08-21T10:51:04;99259.56;;;27.01;48.96
39449;BME280;25151;45.566;9.382;2022-08-21T10:54:19;99259.81;;;27.03;49.20
39449;BME280;25151;45.566;9.382;2022-08-21T10:57:57;99257.53;;;27.07;49.02
39449;BME280;25151;45.566;9.382;2022-08-21T11:01:07;99253.16;;;27.06;49.34
39449;BME280;25151;45.566;9.382;2022-08-21T11:04:13;99250.56;;;27.08;49.04
39449;BME280;25151;45.566;9.382;2022-08-21T11:07:26;99247.75;;;27.08;48.90
39449;BME280;25151;45.566;9.382;2022-08-21T11:10:53;99242.38;;;27.10;49.19
39449;BME280;25151;45.566;9.382;2022-08-21T11:14:18;99235.94;;;27.09;49.44
39449;BME280;25151;45.566;9.382;2022-08-21T11:17:43;99237.50;;;27.10;49.24
39449;BME280;25151;45.566;9.382;2022-08-21T11:20:50;99235.16;;;27.09;49.08
39449;BME280;25151;45.566;9.382;2022-08-21T11:24:12;99220.22;;;27.08;49.10
39449;BME280;25151;45.566;9.382;2022-08-21T11:40:34;99218.22;;;27.14;49.16
39449;BME280;25151;45.566;9.382;2022-08-21T11:43:52;99216.44;;;27.17;49.31
39449;BME280;25151;45.566;9.382;2022-08-21T11:47:05;99213.59;;;27.17;49.58
39449;BME280;25151;45.566;9.382;2022-08-21T11:50:18;99209.22;;;27.16;49.25
39449;BME280;25151;45.566;9.382;2022-08-21T11:53:26;99208.19;;;27.19;49.40
39449;BME280;25151;45.566;9.382;2022-08-21T11:56:38;99200.75;;;27.21;49.90
39449;BME280;25151;45.566;9.382;2022-08-21T11:59:51;99205.66;;;27.21;49.68
39449;BME280;25151;45.566;9.382;2022-08-21T12:02:55;99202.81;;;27.21;50.04
39449;BME280;25151;45.566;9.382;2022-08-21T12:06:00;99201.00;;;27.24;50.30
39449;BME280;25151;45.566;9.382;2022-08-21T12:09:51;99199.22;;;27.26;50.43
39449;BME280;25151;45.566;9.382;2022-08-21T12:12:35;99197.16;;;27.27;50.35
39449;BME280;25151;45.566;9.382;2022-08-21T12:15:36;99188.16;;;27.28;50.49
39449;BME280;25151;45.566;9.382;2022-08-21T12:18:40;99189.44;;;27.27;50.54
39449;BME280;25151;45.566;9.382;2022-08-21T12:24:53;99194.06;;;27.30;50.66
39449;BME280;25151;45.566;9.382;2022-08-21T12:28:08;99177.09;;;27.30;50.69
39449;BME280;25151;45.566;9.382;2022-08-21T12:31:25;99174.53;;;27.32;50.36
39449;BME280;25151;45.566;9.382;2022-08-21T12:34:34;99167.59;;;27.33;50.44
39449;BME280;25151;45.566;9.382;2022-08-21T12:37:56;99158.56;;;27.35;50.44
39449;BME280;25151;45.566;9.382;2022-08-21T12:41:11;99162.94;;;27.36;50.30
39449;BME280;25151;45.566;9.382;2022-08-21T12:44:49;99153.66;;;27.35;50.57
39449;BME280;25151;45.566;9.382;2022-08-21T12:47:57;99150.34;;;27.37;50.54
39449;BME280;25151;45.566;9.382;2022-08-21T12:51:31;99147.00;;;27.38;50.62
39449;BME280;25151;45.566;9.382;2022-08-21T12:54:39;99147.00;;;27.38;50.32
39449;BME280;25151;45.566;9.382;2022-08-21T12:57:41;99150.09;;;27.40;50.77
39449;BME280;25151;45.566;9.382;2022-08-21T13:00:48;99152.94;;;27.40;50.65
39449;BME280;25151;45.566;9.382;2022-08-21T13:03:51;99148.81;;;27.41;50.23
39449;BME280;25151;45.566;9.382;2022-08-21T13:06:54;99146.22;;;27.43;50.36
39449;BME280;25151;45.566;9.382;2022-08-21T13:10:02;99133.88;;;27.41;50.63
39449;BME280;25151;45.566;9.382;2022-08-21T13:13:18;99131.28;;;27.43;50.47
39449;BME280;25151;45.566;9.382;2022-08-21T13:16:27;99128.72;;;27.45;50.59
39449;BME280;25151;45.566;9.382;2022-08-21T13:19:28;99121.78;;;27.46;50.50
39449;BME280;25151;45.566;9.382;2022-08-21T13:22:29;99122.53;;;27.46;50.24
39449;BME280;25151;45.566;9.382;2022-08-21T13:25:36;99119.72;;;27.46;50.12
39449;BME280;25151;45.566;9.382;2022-08-21T13:28:37;99116.38;;;27.48;50.07
39449;BME280;25151;45.566;9.382;2022-08-21T13:31:40;99116.13;;;27.46;50.09
39449;BME280;25151;45.566;9.382;2022-08-21T13:34:42;99114.81;;;27.47;50.43
39449;BME280;25151;45.566;9.382;2022-08-21T13:37:44;99107.63;;;27.46;50.46
39449;BME280;25151;45.566;9.382;2022-08-21T13:43:58;99111.72;;;27.51;50.42
39449;BME280;25151;45.566;9.382;2022-08-21T13:47:00;99106.84;;;27.51;50.56
39449;BME280;25151;45.566;9.382;2022-08-21T13:50:02;99101.69;;;27.50;50.11
39449;BME280;25151;45.566;9.382;2022-08-21T13:53:07;99086.25;;;27.51;50.55
39449;BME280;25151;45.566;9.382;2022-08-21T13:56:08;99092.19;;;27.53;50.36
39449;BME280;25151;45.566;9.382;2022-08-21T13:59:09;99092.44;;;27.55;50.15
39449;BME280;25151;45.566;9.382;2022-08-21T14:05:28;99079.03;;;27.55;50.16
39449;BME280;25151;45.566;9.382;2022-08-21T14:08:35;99072.88;;;27.57;50.38
39449;BME280;25151;45.566;9.382;2022-08-21T14:11:38;99074.94;;;27.56;50.17
39449;BME280;25151;45.566;9.382;2022-08-21T14:14:40;99080.06;;;27.58;50.55
39449;BME280;25151;45.566;9.382;2022-08-21T14:17:41;99079.31;;;27.57;50.13
39449;BME280;25151;45.566;9.382;2022-08-21T14:20:43;99080.59;;;27.56;50.86
39449;BME280;25151;45.566;9.382;2022-08-21T14:23:45;99078.53;;;27.57;50.45
39449;BME280;25151;45.566;9.382;2022-08-21T14:27:11;99072.88;;;27.57;50.60
39449;BME280;25151;45.566;9.382;2022-08-21T14:30:20;99061.53;;;27.57;50.37
39449;BME280;25151;45.566;9.382;2022-08-21T14:33:29;99065.91;;;27.58;50.76
39449;BME280;25151;45.566;9.382;2022-08-21T14:36:31;99065.91;;;27.58;50.64
39449;BME280;25151;45.566;9.382;2022-08-21T14:39:31;99065.16;;;27.57;50.58
39449;BME280;25151;45.566;9.382;2022-08-21T14:42:32;99057.16;;;27.56;50.63
39449;BME280;25151;45.566;9.382;2022-08-21T14:45:34;99058.72;;;27.57;50.39
39449;BME280;25151;45.566;9.382;2022-08-21T14:48:36;99063.84;;;27.58;50.33
39449;BME280;25151;45.566;9.382;2022-08-21T14:51:37;99051.75;;;27.58;50.78
39449;BME280;25151;45.566;9.382;2022-08-21T14:54:39;99048.16;;;27.57;50.35
39449;BME280;25151;45.566;9.382;2022-08-21T14:57:41;99047.63;;;27.59;50.64
39449;BME280;25151;45.566;9.382;2022-08-21T15:00:43;99040.16;;;27.61;50.93
39449;BME280;25151;45.566;9.382;2022-08-21T15:03:45;99033.22;;;27.62;50.55
39449;BME280;25151;45.566;9.382;2022-08-21T15:06:46;99040.41;;;27.63;50.58
39449;BME280;25151;45.566;9.382;2022-08-21T15:09:50;99032.72;;;27.64;50.60
39449;BME280;25151;45.566;9.382;2022-08-21T15:12:50;99029.34;;;27.65;50.38
39449;BME280;25151;45.566;9.382;2022-08-21T15:15:51;99030.13;;;27.66;50.43
39449;BME280;25151;45.566;9.382;2022-08-21T15:18:58;99030.88;;;27.66;50.65
39449;BME280;25151;45.566;9.382;2022-08-21T15:21:58;99032.41;;;27.67;50.81
39449;BME280;25151;45.566;9.382;2022-08-21T15:24:59;99030.38;;;27.68;50.69
39449;BME280;25151;45.566;9.382;2022-08-21T15:28:02;99027.56;;;27.68;50.56
39449;BME280;25151;45.566;9.382;2022-08-21T15:31:04;99033.22;;;27.68;50.53
39449;BME280;25151;45.566;9.382;2022-08-21T15:34:04;99031.91;;;27.69;50.58
39449;BME280;25151;45.566;9.382;2022-08-21T15:37:05;99017.50;;;27.67;50.51
39449;BME280;25151;45.566;9.382;2022-08-21T15:40:08;99017.25;;;27.65;50.75
39449;BME280;25151;45.566;9.382;2022-08-21T15:43:26;99012.09;;;27.69;50.44
39449;BME280;25151;45.566;9.382;2022-08-21T15:46:27;99014.16;;;27.68;50.70
39449;BME280;25151;45.566;9.382;2022-08-21T15:49:27;99006.44;;;27.69;50.72
39449;BME280;25151;45.566;9.382;2022-08-21T15:52:28;99007.47;;;27.66;50.76
39449;BME280;25151;45.566;9.382;2022-08-21T15:55:29;99007.22;;;27.64;50.79
39449;BME280;25151;45.566;9.382;2022-08-21T15:58:29;99010.28;;;27.66;50.54
39449;BME280;25151;45.566;9.382;2022-08-21T16:01:30;99001.03;;;27.65;50.82
39449;BME280;25151;45.566;9.382;2022-08-21T16:04:31;98997.16;;;27.63;50.61
39449;BME280;25151;45.566;9.382;2022-08-21T16:07:32;98998.72;;;27.64;50.61
39449;BME280;25151;45.566;9.382;2022-08-21T16:10:34;99003.09;;;27.65;50.27
39449;BME280;25151;45.566;9.382;2022-08-21T16:13:38;99001.03;;;27.65;50.24
39449;BME280;25151;45.566;9.382;2022-08-21T16:16:44;98994.59;;;27.65;50.71
39449;BME280;25151;45.566;9.382;2022-08-21T16:19:45;98991.75;;;27.65;50.23
39449;BME280;25151;45.566;9.382;2022-08-21T16:22:46;98991.22;;;27.66;50.37
39449;BME280;25151;45.566;9.382;2022-08-21T16:25:47;98984.03;;;27.65;50.53
39449;BME280;25151;45.566;9.382;2022-08-21T16:28:48;98984.81;;;27.66;50.16
39449;BME280;25151;45.566;9.382;2022-08-21T16:31:51;98984.03;;;27.65;50.34
39449;BME280;25151;45.566;9.382;2022-08-21T16:34:53;98978.91;;;27.64;50.54
39449;BME280;25151;45.566;9.382;2022-08-21T16:37:54;98990.47;;;27.66;50.37
39449;BME280;25151;45.566;9.382;2022-08-21T16:40:56;98990.47;;;27.66;50.37
39449;BME280;25151;45.566;9.382;2022-08-21T16:43:56;98984.03;;;27.65;50.49
39449;BME280;25151;45.566;9.382;2022-08-21T16:46:57;98994.59;;;27.65;50.33
39449;BME280;25151;45.566;9.382;2022-08-21T16:49:58;98982.50;;;27.64;50.58
39449;BME280;25151;45.566;9.382;2022-08-21T16:52:59;98976.31;;;27.66;50.30
39449;BME280;25151;45.566;9.382;2022-08-21T16:55:59;98977.84;;;27.67;50.35
39449;BME280;25151;45.566;9.382;2022-08-21T16:59:00;98979.13;;;27.66;50.75
39449;BME280;25151;45.566;9.382;2022-08-21T17:02:17;98979.13;;;27.66;50.75
39449;BME280;25151;45.566;9.382;2022-08-21T17:05:20;98967.84;;;27.60;50.41
39449;BME280;25151;45.566;9.382;2022-08-21T17:08:21;98977.34;;;27.63;50.20
39449;BME280;25151;45.566;9.382;2022-08-21T17:11:28;98983.28;;;27.65;50.64
39449;BME280;25151;45.566;9.382;2022-08-21T17:14:29;98977.59;;;27.65;50.56
39449;BME280;25151;45.566;9.382;2022-08-21T17:17:29;98984.56;;;27.64;50.47